Time;durP1;ratioP1;P1;durP2;ratioP2;P2;SDS_P1;SDS_P2;PMS_P1;PMS_P2;Temp;Humidity;BMP_temperature;BMP_pressure;BME280_temperature;BME280_humidity;BME280_pressure;Samples;Min_cycle;Max_cycle;Signal;HPM_P1;HPM_P2
2022/10/09 00:02:15;;;;;;;4.07;3.60;;;8.20;92.80;;;;;;934398;149;27387;-80
2022/10/09 00:04:42;;;;;;;4.43;3.53;;;8.20;92.90;;;;;;934238;149;27462;-79
2022/10/09 00:07:08;;;;;;;5.07;3.63;;;8.20;93.00;;;;;;933865;149;27369;-79
2022/10/09 00:09:35;;;;;;;4.90;3.67;;;8.10;93.00;;;;;;935443;149;27368;-79
2022/10/09 00:12:01;;;;;;;7.90;4.30;;;8.10;93.10;;;;;;935343;148;27372;-79
2022/10/09 00:14:28;;;;;;;4.53;3.87;;;8.10;93.20;;;;;;935820;148;27962;-78
2022/10/09 00:16:54;;;;;;;5.87;3.73;;;8.10;93.30;;;;;;935220;149;27396;-79
2022/10/09 00:19:21;;;;;;;5.20;4.37;;;8.10;93.50;;;;;;936715;149;27506;-80
2022/10/09 00:21:48;;;;;;;5.23;4.07;;;8.00;93.60;;;;;;930153;149;27430;-80
2022/10/09 00:24:14;;;;;;;6.00;3.87;;;8.00;93.70;;;;;;930651;149;27318;-80
2022/10/09 00:26:41;;;;;;;5.10;3.93;;;8.00;93.80;;;;;;933081;149;27360;-79
2022/10/09 00:29:07;;;;;;;5.53;4.27;;;8.00;93.90;;;;;;932267;149;27331;-80
2022/10/09 00:31:34;;;;;;;5.03;3.50;;;8.00;94.00;;;;;;932406;149;27347;-80
2022/10/09 00:34:01;;;;;;;3.97;3.57;;;8.00;94.10;;;;;;930749;149;27275;-81
2022/10/09 00:36:27;;;;;;;6.47;4.60;;;8.00;94.10;;;;;;929561;149;27355;-80
2022/10/09 00:38:54;;;;;;;5.40;4.20;;;8.00;94.30;;;;;;930198;149;27479;-79
2022/10/09 00:41:20;;;;;;;4.77;4.30;;;8.00;94.30;;;;;;932731;149;27363;-80
2022/10/09 00:43:47;;;;;;;4.60;4.00;;;8.00;94.50;;;;;;929285;149;28837;-81
2022/10/09 00:46:16;;;;;;;5.70;4.00;;;8.00;94.60;;;;;;930664;149;27372;-80
2022/10/09 00:48:43;;;;;;;6.47;4.60;;;8.00;94.70;;;;;;930839;149;27308;-80
2022/10/09 00:51:09;;;;;;;7.27;4.43;;;8.00;94.80;;;;;;930494;149;27376;-78
2022/10/09 00:53:36;;;;;;;5.13;3.97;;;8.00;94.90;;;;;;929707;149;27360;-79
2022/10/09 00:56:03;;;;;;;4.20;3.80;;;8.00;95.10;;;;;;928257;149;27480;-81
2022/10/09 00:58:29;;;;;;;4.50;3.73;;;8.00;95.10;;;;;;930069;149;27428;-79
2022/10/09 01:00:56;;;;;;;4.80;3.80;;;8.00;95.20;;;;;;930309;149;27437;-79
2022/10/09 01:03:22;;;;;;;5.57;3.80;;;8.00;95.20;;;;;;931302;149;28095;-78
2022/10/09 01:05:49;;;;;;;4.33;3.80;;;8.00;95.10;;;;;;930580;149;27435;-79
2022/10/09 01:08:27;;;;;;;4.53;3.87;;;7.90;95.10;;;;;;931653;149;27800;-80
2022/10/09 01:11:03;;;;;;;4.70;3.70;;;7.90;95.00;;;;;;933371;149;27273;-80
2022/10/09 01:13:33;;;;;;;6.13;3.97;;;7.90;94.90;;;;;;930955;149;27762;-80
2022/10/09 01:15:58;;;;;;;4.90;3.53;;;7.90;94.90;;;;;;928339;149;27383;-80
2022/10/09 01:18:43;;;;;;;4.40;4.00;;;7.80;94.80;;;;;;931541;149;27343;-80
2022/10/09 01:21:27;;;;;;;6.07;3.43;;;7.80;94.90;;;;;;932130;148;27448;-80
2022/10/09 01:23:54;;;;;;;4.70;4.17;;;7.80;94.80;;;;;;935937;148;27250;-81
2022/10/09 01:26:42;;;;;;;3.97;3.30;;;7.70;94.70;;;;;;936789;148;27463;-79
2022/10/09 01:29:08;;;;;;;3.93;3.63;;;7.70;94.80;;;;;;935595;148;27458;-81
2022/10/09 01:31:35;;;;;;;6.27;3.83;;;7.70;94.60;;;;;;937450;148;27432;-80
2022/10/09 01:34:02;;;;;;;4.43;3.97;;;7.60;94.70;;;;;;935405;148;27959;-80
2022/10/09 01:36:28;;;;;;;5.70;3.53;;;7.60;94.80;;;;;;935259;148;27326;-80
2022/10/09 01:38:55;;;;;;;8.53;4.97;;;7.50;94.90;;;;;;934814;148;28171;-80
2022/10/09 01:41:21;;;;;;;4.10;3.70;;;7.50;95.00;;;;;;934170;148;27334;-79
2022/10/09 01:43:48;;;;;;;5.33;4.27;;;7.50;95.20;;;;;;936760;148;27491;-80
2022/10/09 01:46:29;;;;;;;5.93;4.23;;;7.50;95.30;;;;;;933826;148;28330;-81
2022/10/09 01:49:20;;;;;;;5.50;3.87;;;7.40;95.40;;;;;;934697;148;27316;-80
2022/10/09 01:51:52;;;;;;;8.60;3.73;;;7.40;95.40;;;;;;933124;148;27427;-80
2022/10/09 01:54:19;;;;;;;9.47;4.00;;;7.40;95.30;;;;;;933819;148;27459;-81
2022/10/09 01:56:45;;;;;;;5.33;3.93;;;7.40;95.50;;;;;;935546;148;27387;-81
2022/10/09 01:59:12;;;;;;;7.80;4.27;;;7.40;95.60;;;;;;934984;148;27331;-79
2022/10/09 02:01:40;;;;;;;4.47;4.10;;;7.40;95.60;;;;;;936996;148;27406;-80
2022/10/09 02:04:05;;;;;;;5.40;4.00;;;7.40;95.80;;;;;;936983;148;27446;-80
2022/10/09 02:06:32;;;;;;;4.43;4.13;;;7.40;95.80;;;;;;936440;148;27366;-80
2022/10/09 02:08:58;;;;;;;4.87;3.73;;;7.40;95.80;;;;;;935672;148;27453;-80
2022/10/09 02:11:25;;;;;;;6.13;4.00;;;7.40;95.70;;;;;;935588;148;27436;-79
2022/10/09 02:13:52;;;;;;;7.43;4.13;;;7.40;96.20;;;;;;937038;148;27255;-80
2022/10/09 02:16:24;;;;;;;5.57;3.90;;;7.30;95.90;;;;;;938470;148;27436;-80
2022/10/09 02:18:57;;;;;;;4.17;3.80;;;7.30;96.00;;;;;;935889;148;27332;-79
2022/10/09 02:21:51;;;;;;;4.27;3.87;;;7.30;96.10;;;;;;936151;148;27514;-81
2022/10/09 02:24:17;;;;;;;4.50;3.77;;;7.30;96.30;;;;;;938059;148;27755;-77
2022/10/09 02:26:44;;;;;;;5.60;3.80;;;7.30;96.50;;;;;;938948;148;28466;-77
2022/10/09 02:29:11;;;;;;;4.33;3.50;;;7.30;96.70;;;;;;940558;148;27649;-77
2022/10/09 02:31:37;;;;;;;5.17;4.07;;;7.30;96.80;;;;;;942147;148;27314;-77
2022/10/09 02:34:04;;;;;;;9.73;4.07;;;7.40;96.80;;;;;;939322;148;27424;-77
2022/10/09 02:36:30;;;;;;;6.87;4.50;;;7.40;96.70;;;;;;938616;148;27405;-77
2022/10/09 02:38:57;;;;;;;3.83;3.50;;;7.40;96.60;;;;;;940472;148;27749;-77
2022/10/09 02:41:24;;;;;;;4.27;3.47;;;7.40;96.60;;;;;;939791;148;27301;-77
2022/10/09 02:43:50;;;;;;;4.73;4.03;;;7.40;96.50;;;;;;939359;148;27486;-78
2022/10/09 02:46:17;;;;;;;5.13;4.60;;;7.30;96.40;;;;;;938355;148;27350;-78
2022/10/09 02:48:43;;;;;;;4.53;4.13;;;7.30;96.30;;;;;;938044;148;27695;-77
2022/10/09 02:51:10;;;;;;;5.13;4.60;;;7.30;96.20;;;;;;937510;148;27456;-76
2022/10/09 02:53:36;;;;;;;5.97;4.40;;;7.30;96.30;;;;;;939483;148;28573;-78
2022/10/09 02:56:03;;;;;;;4.03;3.53;;;7.20;96.30;;;;;;938387;148;27361;-77
2022/10/09 02:58:30;;;;;;;5.40;4.00;;;7.20;96.40;;;;;;938905;148;27323;-77
2022/10/09 03:00:56;;;;;;;5.87;4.17;;;7.20;96.40;;;;;;937790;148;27426;-78
2022/10/09 03:03:23;;;;;;;7.87;4.63;;;7.20;96.40;;;;;;937882;148;27371;-77
2022/10/09 03:05:49;;;;;;;4.70;3.77;;;7.10;96.30;;;;;;941247;148;27268;-77
2022/10/09 03:08:16;;;;;;;6.50;4.13;;;7.10;96.40;;;;;;937631;148;27334;-77
2022/10/09 03:10:43;;;;;;;4.73;4.10;;;7.10;96.30;;;;;;937882;148;27860;-77
2022/10/09 03:13:09;;;;;;;4.40;3.67;;;7.00;96.30;;;;;;939567;148;27297;-77
2022/10/09 03:15:36;;;;;;;5.53;3.90;;;7.00;96.30;;;;;;937963;148;27477;-77
2022/10/09 03:18:02;;;;;;;4.77;3.70;;;7.00;96.30;;;;;;937331;148;27423;-77
2022/10/09 03:20:29;;;;;;;4.03;3.53;;;6.90;96.40;;;;;;937407;148;27457;-77
2022/10/09 03:22:56;;;;;;;4.13;3.63;;;6.90;96.40;;;;;;939518;147;27315;-78
2022/10/09 03:25:22;;;;;;;8.23;4.23;;;6.90;96.40;;;;;;927068;150;27338;-78
2022/10/09 03:27:49;;;;;;;5.47;3.33;;;6.80;96.50;;;;;;932988;149;27807;-78
2022/10/09 03:30:15;;;;;;;5.10;3.70;;;6.80;96.50;;;;;;931804;149;27930;-77
2022/10/09 03:32:42;;;;;;;3.93;3.63;;;6.80;96.60;;;;;;934763;149;27479;-77
2022/10/09 03:35:08;;;;;;;9.03;4.10;;;6.70;96.60;;;;;;931913;149;27345;-77
2022/10/09 03:37:35;;;;;;;6.40;4.10;;;6.70;96.70;;;;;;932424;149;27432;-78
2022/10/09 03:40:02;;;;;;;3.53;2.90;;;6.70;96.70;;;;;;931140;149;27362;-77
2022/10/09 03:42:28;;;;;;;4.47;3.07;;;6.70;96.70;;;;;;934661;149;27481;-78
2022/10/09 03:44:56;;;;;;;5.03;3.17;;;6.70;96.70;;;;;;932100;149;27478;-77
2022/10/09 03:47:21;;;;;;;5.30;3.53;;;6.60;96.60;;;;;;934512;149;27309;-77
2022/10/09 03:49:48;;;;;;;4.33;3.53;;;6.60;97.00;;;;;;932749;149;27399;-78
2022/10/09 03:52:14;;;;;;;4.20;3.80;;;6.60;96.60;;;;;;931213;149;27711;-78
2022/10/09 03:54:41;;;;;;;4.60;4.10;;;6.50;96.60;;;;;;932529;149;27837;-77
2022/10/09 03:57:08;;;;;;;4.00;3.70;;;6.50;96.60;;;;;;935038;149;27481;-78
2022/10/09 03:59:34;;;;;;;6.63;4.10;;;6.50;96.40;;;;;;933755;149;28062;-77
2022/10/09 04:02:01;;;;;;;4.40;4.00;;;6.40;96.30;;;;;;931677;149;27365;-77
2022/10/09 04:04:27;;;;;;;3.70;3.37;;;6.40;96.20;;;;;;931799;149;27324;-77
2022/10/09 04:06:54;;;;;;;3.50;3.20;;;6.30;96.00;;;;;;932960;149;27393;-78
2022/10/09 04:09:21;;;;;;;4.03;3.73;;;6.30;96.00;;;;;;933095;149;27355;-77
2022/10/09 04:11:47;;;;;;;3.13;2.93;;;6.20;95.90;;;;;;930663;149;27415;-77
2022/10/09 04:14:14;;;;;;;3.50;3.20;;;6.20;96.00;;;;;;931933;149;27364;-77
2022/10/09 04:16:40;;;;;;;3.63;3.33;;;6.20;96.00;;;;;;933136;149;27336;-78
2022/10/09 04:19:07;;;;;;;3.40;3.10;;;6.10;96.10;;;;;;932684;149;27465;-77
2022/10/09 04:21:33;;;;;;;3.70;3.40;;;6.00;96.20;;;;;;931307;149;27803;-77
2022/10/09 04:24:02;;;;;;;3.17;2.97;;;6.00;96.20;;;;;;932678;149;27398;-78
2022/10/09 04:26:27;;;;;;;4.87;3.70;;;6.00;96.30;;;;;;932653;149;27459;-77
2022/10/09 04:28:53;;;;;;;3.60;3.30;;;6.00;96.40;;;;;;932471;149;27278;-76
2022/10/09 04:31:20;;;;;;;3.60;3.30;;;5.90;96.40;;;;;;931902;149;27393;-78
2022/10/09 04:33:46;;;;;;;3.53;3.23;;;5.90;96.40;;;;;;932105;149;27498;-77
2022/10/09 04:36:13;;;;;;;3.10;2.90;;;5.80;96.40;;;;;;934214;149;27675;-77
2022/10/09 04:38:40;;;;;;;3.47;3.17;;;5.80;96.50;;;;;;932172;149;27281;-78
2022/10/09 04:41:06;;;;;;;3.47;3.20;;;5.80;96.50;;;;;;932211;149;27353;-77
2022/10/09 04:43:33;;;;;;;3.40;3.10;;;5.70;96.60;;;;;;933565;149;27446;-78
2022/10/09 04:45:59;;;;;;;2.97;2.67;;;5.70;96.60;;;;;;933364;149;27466;-77
2022/10/09 04:48:26;;;;;;;3.47;3.17;;;5.70;96.60;;;;;;933364;149;27380;-77
2022/10/09 04:50:52;;;;;;;3.60;3.30;;;5.70;96.80;;;;;;931894;149;27345;-77
2022/10/09 04:53:19;;;;;;;3.07;2.80;;;5.60;96.80;;;;;;931331;149;27999;-77
2022/10/09 04:55:46;;;;;;;3.33;3.07;;;5.60;96.60;;;;;;931951;149;27356;-77
2022/10/09 04:58:12;;;;;;;2.83;2.63;;;5.60;97.00;;;;;;933429;149;27458;-78
2022/10/09 05:00:39;;;;;;;3.30;3.00;;;5.60;97.20;;;;;;932693;149;27397;-77
2022/10/09 05:03:05;;;;;;;3.63;3.33;;;5.60;97.40;;;;;;926972;149;27483;-77
2022/10/09 05:05:32;;;;;;;3.80;3.50;;;5.60;97.60;;;;;;928614;149;27448;-77
2022/10/09 05:07:59;;;;;;;4.17;3.87;;;5.60;97.80;;;;;;931338;149;27444;-77
2022/10/09 05:10:25;;;;;;;3.63;3.33;;;5.60;97.80;;;;;;929639;149;27312;-77
2022/10/09 05:12:52;;;;;;;4.70;3.50;;;5.60;97.80;;;;;;929017;149;27415;-78
2022/10/09 05:15:18;;;;;;;3.90;3.57;;;5.60;97.90;;;;;;929211;149;27393;-77
2022/10/09 05:17:45;;;;;;;4.50;4.00;;;5.60;97.80;;;;;;921325;150;27390;-77
2022/10/09 05:20:11;;;;;;;3.73;3.43;;;5.60;97.80;;;;;;930027;149;27435;-77
2022/10/09 05:22:38;;;;;;;3.77;3.33;;;5.60;97.70;;;;;;929682;149;27370;-77
2022/10/09 05:25:05;;;;;;;3.97;3.67;;;5.60;97.90;;;;;;934535;149;27503;-78
2022/10/09 05:27:31;;;;;;;3.80;3.50;;;5.60;97.60;;;;;;927085;150;27387;-76
2022/10/09 05:29:58;;;;;;;5.97;3.70;;;5.60;97.50;;;;;;926991;152;27403;-77
2022/10/09 05:32:25;;;;;;;4.03;3.63;;;5.50;97.40;;;;;;920081;151;27486;-77
2022/10/09 05:34:51;;;;;;;3.83;3.53;;;5.50;97.40;;;;;;926767;152;27382;-77
2022/10/09 05:37:18;;;;;;;4.23;3.63;;;5.50;97.30;;;;;;930030;150;27983;-76
2022/10/09 05:39:45;;;;;;;3.47;3.20;;;5.50;97.30;;;;;;928743;152;27526;-77
2022/10/09 05:42:11;;;;;;;4.03;3.47;;;5.50;97.30;;;;;;920397;151;27397;-77
2022/10/09 05:44:38;;;;;;;3.33;3.13;;;5.40;97.40;;;;;;929538;150;27388;-77
2022/10/09 05:47:04;;;;;;;3.93;3.40;;;5.40;97.50;;;;;;936379;151;27375;-76
2022/10/09 05:49:31;;;;;;;3.90;3.60;;;5.40;97.60;;;;;;916271;152;27379;-76
2022/10/09 05:51:57;;;;;;;5.87;3.70;;;5.40;97.60;;;;;;934530;149;27440;-77
2022/10/09 05:54:24;;;;;;;3.97;3.60;;;5.40;97.70;;;;;;927329;152;27480;-76
2022/10/09 05:56:50;;;;;;;4.33;3.43;;;5.40;97.80;;;;;;926995;150;27351;-77
2022/10/09 05:59:20;;;;;;;5.23;3.50;;;5.40;97.90;;;;;;925827;152;27457;-77
2022/10/09 06:01:45;;;;;;;7.27;3.87;;;5.40;98.00;;;;;;928922;152;27429;-77
2022/10/09 06:04:13;;;;;;;7.17;4.30;;;5.40;98.10;;;;;;924818;150;28132;-77
2022/10/09 06:06:40;;;;;;;7.87;3.90;;;5.40;98.20;;;;;;928635;150;27487;-77
2022/10/09 06:09:06;;;;;;;6.73;4.30;;;5.50;98.40;;;;;;927030;150;27377;-77
2022/10/09 06:11:33;;;;;;;5.57;4.10;;;5.50;98.60;;;;;;927499;152;27339;-77
2022/10/09 06:13:59;;;;;;;8.43;4.23;;;5.50;99.00;;;;;;926853;151;27351;-77
2022/10/09 06:16:26;;;;;;;19.37;4.57;;;5.60;99.70;;;;;;925400;151;27411;-77
2022/10/09 06:18:52;;;;;;;6.50;4.43;;;5.70;99.90;;;;;;926058;151;27474;-77
2022/10/09 06:21:19;;;;;;;4.13;3.73;;;5.90;99.90;;;;;;926491;152;27809;-77
2022/10/09 06:23:48;;;;;;;8.00;4.33;;;6.10;99.90;;;;;;926773;151;27478;-78
2022/10/09 06:26:15;;;;;;;4.37;3.30;;;6.30;99.90;;;;;;935904;149;27324;-77
2022/10/09 06:28:41;;;;;;;6.50;3.87;;;6.60;99.90;;;;;;935164;149;27399;-77
2022/10/09 06:31:11;;;;;;;3.87;3.53;;;6.90;99.90;;;;;;938056;149;28090;-77
2022/10/09 06:33:37;;;;;;;6.57;4.17;;;7.30;99.90;;;;;;934978;149;27361;-78
2022/10/09 06:36:04;;;;;;;5.67;4.43;;;7.80;99.90;;;;;;934162;149;27347;-78
2022/10/09 06:38:30;;;;;;;7.00;4.47;;;8.40;99.90;;;;;;931539;149;27346;-77
2022/10/09 06:41:06;;;;;;;6.27;4.83;;;9.00;99.90;;;;;;934768;149;27376;-77
2022/10/09 06:43:32;;;;;;;6.00;4.60;;;9.60;99.90;;;;;;935738;149;27992;-78
2022/10/09 06:46:02;;;;;;;5.57;4.90;;;10.40;99.90;;;;;;936604;149;27320;-77
2022/10/09 06:48:29;;;;;;;5.80;4.83;;;11.10;99.90;;;;;;935187;149;27402;-77
2022/10/09 06:50:55;;;;;;;7.73;5.07;;;11.80;99.90;;;;;;936652;149;27372;-77
2022/10/09 06:53:21;;;;;;;5.70;5.20;;;12.50;99.90;;;;;;937746;149;27960;-77
2022/10/09 06:55:51;;;;;;;6.10;5.30;;;13.30;99.90;;;;;;935153;149;27469;-77
2022/10/09 06:58:17;;;;;;;5.45;4.58;;;14.00;99.90;;;;;;934332;149;27373;-77
2022/10/09 07:00:44;;;;;;;5.12;3.60;;;14.70;99.90;;;;;;938535;148;27312;-77
2022/10/09 07:03:10;;;;;;;3.52;3.22;;;15.40;99.90;;;;;;940830;148;27375;-77
2022/10/09 07:05:37;;;;;;;4.33;3.95;;;16.10;99.10;;;;;;938588;148;27370;-77
2022/10/09 07:08:04;;;;;;;3.75;3.40;;;16.80;96.90;;;;;;939384;148;27393;-77
2022/10/09 07:10:30;;;;;;;3.52;3.22;;;17.50;94.60;;;;;;940044;148;27379;-76
2022/10/09 07:12:57;;;;;;;3.45;3.00;;;18.10;92.40;;;;;;939905;148;27402;-77
2022/10/09 07:15:23;;;;;;;3.75;3.10;;;18.80;90.90;;;;;;937868;148;27343;-77
2022/10/09 07:17:50;;;;;;;3.50;2.72;;;19.40;88.00;;;;;;940347;148;27776;-77
2022/10/09 07:20:17;;;;;;;3.12;2.87;;;20.00;84.50;;;;;;940356;148;27419;-77
2022/10/09 07:22:43;;;;;;;2.75;2.55;;;20.60;81.90;;;;;;937920;148;27388;-77
2022/10/09 07:25:11;;;;;;;2.15;1.95;;;21.20;80.00;;;;;;938127;148;27363;-77
2022/10/09 07:27:36;;;;;;;2.85;2.65;;;21.80;77.10;;;;;;939356;148;27454;-77
2022/10/09 07:30:03;;;;;;;2.83;2.50;;;22.30;74.70;;;;;;938894;148;27489;-77
2022/10/09 07:32:29;;;;;;;2.65;2.15;;;22.70;72.70;;;;;;940732;148;27500;-77
2022/10/09 07:34:56;;;;;;;2.12;2.02;;;23.20;71.00;;;;;;940680;148;27317;-77
2022/10/09 07:37:23;;;;;;;2.27;2.10;;;23.70;69.90;;;;;;941754;148;27597;-77
2022/10/09 07:39:49;;;;;;;2.77;2.58;;;24.10;68.50;;;;;;939563;148;27371;-77
2022/10/09 07:42:16;;;;;;;2.60;2.40;;;24.50;67.20;;;;;;939204;148;27437;-78
2022/10/09 07:44:42;;;;;;;2.30;2.20;;;24.90;65.90;;;;;;940103;148;27508;-78
2022/10/09 07:47:09;;;;;;;2.58;2.33;;;25.40;64.50;;;;;;938408;148;27397;-78
2022/10/09 07:49:36;;;;;;;2.15;2.05;;;25.70;63.20;;;;;;940501;148;27421;-78
2022/10/09 07:52:02;;;;;;;2.05;1.95;;;26.10;62.20;;;;;;939681;148;27381;-79
2022/10/09 07:54:29;;;;;;;2.15;2.00;;;26.50;61.20;;;;;;938138;148;27423;-79
2022/10/09 07:56:55;;;;;;;4.58;2.35;;;26.80;60.60;;;;;;941019;148;27376;-79
2022/10/09 07:59:22;;;;;;;2.33;2.17;;;27.10;59.70;;;;;;940466;148;27397;-79
2022/10/09 08:01:49;;;;;;;2.30;2.10;;;27.40;58.90;;;;;;939838;148;27483;-79
2022/10/09 08:04:15;;;;;;;2.10;1.90;;;27.70;58.20;;;;;;938498;148;27336;-79
2022/10/09 08:06:42;;;;;;;2.87;1.80;;;28.00;57.70;;;;;;939983;148;27367;-79
2022/10/09 08:09:08;;;;;;;1.92;1.77;;;28.30;56.90;;;;;;940386;148;27368;-79
2022/10/09 08:11:39;;;;;;;1.75;1.65;;;28.50;56.40;;;;;;938520;148;28386;-78
2022/10/09 08:14:02;;;;;;;1.80;1.70;;;28.80;55.70;;;;;;938280;148;27621;-79
2022/10/09 08:16:28;;;;;;;2.40;1.95;;;29.00;55.20;;;;;;938058;148;27461;-79
2022/10/09 08:18:58;;;;;;;2.35;2.15;;;29.20;55.10;;;;;;938843;148;27380;-79
2022/10/09 08:21:26;;;;;;;1.90;1.80;;;29.40;54.80;;;;;;939553;148;27460;-79
2022/10/09 08:23:53;;;;;;;2.20;2.00;;;29.60;54.40;;;;;;939469;148;27367;-79
2022/10/09 08:26:20;;;;;;;2.37;2.17;;;29.90;53.80;;;;;;937833;148;27375;-79
2022/10/09 08:28:49;;;;;;;2.10;2.00;;;30.10;53.30;;;;;;922797;150;27325;-79
2022/10/09 08:31:16;;;;;;;2.20;2.02;;;30.30;52.90;;;;;;929777;149;27455;-79
2022/10/09 08:33:42;;;;;;;1.82;1.72;;;30.50;52.30;;;;;;930190;149;28107;-79
2022/10/09 08:36:09;;;;;;;2.05;1.92;;;30.70;51.90;;;;;;929754;149;27396;-79
2022/10/09 08:38:36;;;;;;;3.25;2.00;;;30.90;51.40;;;;;;930276;149;27407;-79
2022/10/09 08:41:11;;;;;;;2.55;2.20;;;31.00;51.00;;;;;;929547;149;27445;-77
2022/10/09 08:43:38;;;;;;;2.65;2.33;;;31.20;50.40;;;;;;929041;149;27398;-78
2022/10/09 08:46:04;;;;;;;2.87;2.67;;;31.20;49.80;;;;;;928741;149;27386;-79
2022/10/09 08:48:31;;;;;;;2.95;2.72;;;31.30;49.50;;;;;;929438;149;27422;-78
2022/10/09 08:50:57;;;;;;;3.08;2.85;;;31.30;49.30;;;;;;926661;149;27468;-79
2022/10/09 08:53:35;;;;;;;3.05;2.75;;;31.30;48.80;;;;;;930033;149;27719;-79
2022/10/09 08:56:02;;;;;;;2.70;2.42;;;31.30;48.50;;;;;;928374;149;28136;-79
2022/10/09 08:58:29;;;;;;;3.22;2.72;;;31.30;48.50;;;;;;929331;149;27338;-79
2022/10/09 09:00:58;;;;;;;2.62;2.37;;;31.30;48.10;;;;;;929521;149;28176;-79
2022/10/09 09:03:36;;;;;;;3.67;2.10;;;31.20;48.00;;;;;;929094;149;27317;-79
2022/10/09 09:06:21;;;;;;;2.55;2.10;;;31.20;47.90;;;;;;929718;149;27395;-79
2022/10/09 09:08:53;;;;;;;1.90;1.80;;;31.20;48.00;;;;;;926995;149;27398;-79
2022/10/09 09:11:23;;;;;;;2.02;1.87;;;31.20;47.70;;;;;;927756;149;27350;-79
2022/10/09 09:13:49;;;;;;;2.72;1.72;;;31.10;47.60;;;;;;927889;149;27351;-79
2022/10/09 09:16:25;;;;;;;4.37;2.10;;;31.10;47.30;;;;;;923117;149;27355;-79
2022/10/09 09:19:29;;;;;;;1.47;1.37;;;31.00;47.40;;;;;;928067;149;28052;-79
2022/10/09 09:21:55;;;;;;;2.08;1.70;;;31.00;47.50;;;;;;931375;149;27359;-80
2022/10/09 09:24:22;;;;;;;1.40;1.27;;;30.90;47.40;;;;;;930756;149;27480;-78
2022/10/09 09:26:48;;;;;;;2.12;1.60;;;30.80;47.10;;;;;;925333;149;27418;-79
2022/10/09 09:29:15;;;;;;;2.87;1.75;;;30.70;46.50;;;;;;929415;149;27385;-79
2022/10/09 09:31:42;;;;;;;1.42;1.32;;;30.50;46.30;;;;;;928309;150;27429;-79
2022/10/09 09:34:14;;;;;;;2.25;1.60;;;30.20;46.00;;;;;;918275;151;27493;-79
2022/10/09 09:36:59;;;;;;;3.52;1.87;;;29.90;46.20;;;;;;933899;149;27560;-79
2022/10/09 09:39:26;;;;;;;4.00;1.92;;;29.50;46.00;;;;;;934240;149;28032;-79
2022/10/09 09:41:52;;;;;;;3.15;1.70;;;29.10;46.30;;;;;;934683;149;27409;-78
2022/10/09 09:44:19;;;;;;;2.33;2.12;;;28.70;45.90;;;;;;933439;149;27903;-79
2022/10/09 09:46:45;;;;;;;2.37;1.75;;;28.30;46.00;;;;;;932868;148;27357;-78
2022/10/09 09:49:15;;;;;;;2.10;1.92;;;27.80;46.00;;;;;;932707;149;27308;-79
2022/10/09 09:51:41;;;;;;;2.30;1.80;;;27.40;45.80;;;;;;934767;149;27401;-79
2022/10/09 09:54:20;;;;;;;2.22;1.52;;;26.90;46.00;;;;;;933097;149;27348;-78
2022/10/09 09:56:47;;;;;;;2.05;1.55;;;26.40;46.30;;;;;;932056;149;27408;-79
2022/10/09 09:59:31;;;;;;;2.70;1.55;;;25.90;46.60;;;;;;933383;149;27462;-79
2022/10/09 10:02:22;;;;;;;3.83;1.60;;;25.50;46.30;;;;;;934148;149;27329;-78
2022/10/09 10:04:51;;;;;;;2.27;1.37;;;25.00;46.00;;;;;;933607;149;27365;-80
2022/10/09 10:07:33;;;;;;;1.40;1.30;;;24.50;46.60;;;;;;933157;148;27476;-79
2022/10/09 10:10:02;;;;;;;1.57;1.22;;;24.00;46.40;;;;;;933630;149;27348;-79
2022/10/09 10:12:29;;;;;;;3.52;1.27;;;23.50;47.00;;;;;;932786;149;28159;-78
2022/10/09 10:14:55;;;;;;;1.12;1.10;;;23.00;47.70;;;;;;934929;149;27323;-79
2022/10/09 10:17:24;;;;;;;2.42;1.82;;;22.60;48.20;;;;;;932285;149;27371;-78
2022/10/09 10:19:51;;;;;;;1.72;1.10;;;22.20;48.50;;;;;;934486;149;27334;-78
2022/10/09 10:22:27;;;;;;;0.93;0.90;;;21.90;49.20;;;;;;934954;149;27335;-79
2022/10/09 10:24:53;;;;;;;1.42;1.07;;;21.60;49.30;;;;;;935072;149;27361;-79
2022/10/09 10:27:35;;;;;;;2.12;1.20;;;21.30;49.90;;;;;;934376;149;27449;-78
2022/10/09 10:30:02;;;;;;;1.52;1.40;;;21.10;50.40;;;;;;933309;149;27546;-78
2022/10/09 10:32:28;;;;;;;2.67;1.45;;;20.90;50.80;;;;;;933019;148;27347;-79
2022/10/09 10:34:58;;;;;;;2.90;1.50;;;20.70;50.90;;;;;;933109;149;27443;-79
2022/10/09 10:37:33;;;;;;;1.77;1.57;;;20.60;51.60;;;;;;934035;149;27361;-79
2022/10/09 10:40:14;;;;;;;3.75;1.80;;;20.50;52.30;;;;;;922225;150;27396;-79
2022/10/09 10:42:40;;;;;;;2.52;1.85;;;20.30;52.50;;;;;;933000;149;27334;-78
2022/10/09 10:45:10;;;;;;;2.20;1.82;;;20.30;53.00;;;;;;933489;149;27444;-78
2022/10/09 10:47:37;;;;;;;2.35;1.67;;;20.10;53.20;;;;;;931938;149;27659;-79
2022/10/09 10:50:03;;;;;;;1.65;1.42;;;20.10;53.50;;;;;;932555;148;27405;-79
2022/10/09 10:52:35;;;;;;;3.52;1.65;;;20.00;53.80;;;;;;935954;149;27380;-78
2022/10/09 10:55:11;;;;;;;2.37;1.62;;;20.00;53.70;;;;;;932846;149;27645;-79
2022/10/09 10:57:50;;;;;;;6.05;2.62;;;20.00;53.80;;;;;;934007;148;27319;-79
2022/10/09 11:00:16;;;;;;;1.50;1.40;;;20.00;54.00;;;;;;933248;148;27374;-79
2022/10/09 11:02:55;;;;;;;1.70;1.35;;;19.90;53.90;;;;;;934122;149;27476;-79
2022/10/09 11:05:40;;;;;;;1.60;1.50;;;19.90;54.10;;;;;;933900;149;27389;-78
2022/10/09 11:08:31;;;;;;;1.85;1.67;;;19.90;54.20;;;;;;932399;148;28417;-78
2022/10/09 11:11:18;;;;;;;2.37;1.72;;;20.00;54.40;;;;;;935313;149;27412;-77
2022/10/09 11:14:03;;;;;;;3.50;1.90;;;19.90;54.30;;;;;;935389;149;27352;-79
2022/10/09 11:16:48;;;;;;;2.65;1.67;;;19.90;54.30;;;;;;931480;149;27354;-78
2022/10/09 11:19:33;;;;;;;1.95;1.70;;;19.90;54.30;;;;;;928221;149;28295;-78
2022/10/09 11:22:02;;;;;;;2.87;1.80;;;19.90;54.20;;;;;;933601;148;27458;-79
2022/10/09 11:24:48;;;;;;;2.45;1.50;;;19.90;54.20;;;;;;933002;149;27372;-79
2022/10/09 11:27:23;;;;;;;1.40;1.30;;;19.90;54.30;;;;;;933709;149;27356;-79
2022/10/09 11:29:56;;;;;;;2.40;1.37;;;19.90;54.40;;;;;;937936;147;27393;-79
2022/10/09 11:32:34;;;;;;;1.55;1.32;;;19.90;54.40;;;;;;936787;147;27351;-79
2022/10/09 11:35:18;;;;;;;1.67;1.17;;;19.90;54.30;;;;;;937905;148;27307;-79
2022/10/09 11:37:45;;;;;;;3.42;1.82;;;19.90;54.30;;;;;;938568;147;27364;-79
2022/10/09 11:40:14;;;;;;;2.87;1.30;;;19.90;54.20;;;;;;938099;147;27311;-79
2022/10/09 11:42:41;;;;;;;3.35;1.40;;;19.90;53.90;;;;;;936672;148;27343;-79
2022/10/09 11:45:29;;;;;;;1.62;1.07;;;19.90;53.60;;;;;;938805;148;27351;-79
2022/10/09 11:47:55;;;;;;;2.52;1.22;;;19.90;53.10;;;;;;937131;147;27300;-79
2022/10/09 11:50:33;;;;;;;1.10;1.00;;;19.80;53.00;;;;;;940046;147;28075;-79
2022/10/09 11:53:00;;;;;;;2.35;1.20;;;19.80;52.80;;;;;;939766;148;27282;-79
2022/10/09 11:55:27;;;;;;;1.92;1.30;;;19.80;52.70;;;;;;939457;147;27413;-79
2022/10/09 11:57:53;;;;;;;3.17;1.25;;;19.70;52.70;;;;;;939226;148;27661;-79
2022/10/09 12:00:29;;;;;;;2.58;1.62;;;19.70;52.70;;;;;;938523;148;27412;-79
2022/10/09 12:02:58;;;;;;;1.77;1.10;;;19.70;52.90;;;;;;940395;148;27483;-79
2022/10/09 12:05:40;;;;;;;2.27;1.20;;;19.60;52.50;;;;;;937991;148;27315;-79
2022/10/09 12:08:15;;;;;;;1.20;0.98;;;19.60;52.40;;;;;;938242;147;27388;-79
2022/10/09 12:10:54;;;;;;;1.40;1.30;;;19.50;52.60;;;;;;938063;148;27409;-79
2022/10/09 12:13:36;;;;;;;1.80;1.10;;;19.50;52.60;;;;;;938039;148;27300;-80
2022/10/09 12:16:02;;;;;;;1.00;1.00;;;19.50;52.50;;;;;;939522;148;27435;-79
2022/10/09 12:18:31;;;;;;;1.20;1.00;;;19.40;52.50;;;;;;940060;147;27327;-79
2022/10/09 12:20:58;;;;;;;1.17;0.90;;;19.40;52.30;;;;;;938534;147;27355;-79
2022/10/09 12:23:25;;;;;;;2.50;1.10;;;19.40;52.20;;;;;;939753;147;27409;-80
2022/10/09 12:25:51;;;;;;;1.55;1.17;;;19.40;52.10;;;;;;939915;148;27919;-79
2022/10/09 12:28:26;;;;;;;1.20;1.00;;;19.40;52.30;;;;;;936267;147;27965;-79
2022/10/09 12:30:50;;;;;;;1.45;1.00;;;19.40;52.30;;;;;;932104;149;27369;-79
2022/10/09 12:33:17;;;;;;;0.98;0.98;;;19.30;52.30;;;;;;931982;149;27355;-79
2022/10/09 12:35:43;;;;;;;1.12;0.90;;;19.30;52.30;;;;;;931858;149;27300;-79
2022/10/09 12:38:25;;;;;;;1.60;1.00;;;19.30;52.30;;;;;;931482;149;27388;-79
2022/10/09 12:40:52;;;;;;;1.27;1.02;;;19.40;52.20;;;;;;931300;152;28430;-79
2022/10/09 12:43:18;;;;;;;0.95;0.90;;;19.40;52.60;;;;;;931306;150;27365;-79
2022/10/09 12:45:45;;;;;;;0.95;0.82;;;19.40;52.10;;;;;;933532;149;27440;-79
2022/10/09 12:48:11;;;;;;;0.85;0.80;;;19.40;52.00;;;;;;931761;150;27314;-79
2022/10/09 12:50:38;;;;;;;1.62;1.30;;;19.40;52.20;;;;;;932689;152;27441;-79
2022/10/09 12:53:05;;;;;;;3.22;1.05;;;19.40;52.20;;;;;;931896;152;27461;-80
2022/10/09 12:55:34;;;;;;;2.62;1.07;;;19.40;52.20;;;;;;933055;149;27514;-79
2022/10/09 12:58:03;;;;;;;1.62;1.47;;;19.40;52.10;;;;;;930129;149;27715;-79
2022/10/09 13:00:30;;;;;;;1.30;1.20;;;19.50;52.00;;;;;;929959;149;27319;-79
2022/10/09 13:02:57;;;;;;;1.12;0.82;;;19.50;51.80;;;;;;931378;149;27364;-80